KPHL/PHL METAR and TAF weather

Enter ICAO airport designator
Station Type Date Time Source
KPHL METAR 2019/04/20 17:54 UTC NOAA

KPHL 201754Z 19012G19KT 10SM FEW014 SCT020 BKN250 22/16 A2969 RMK AO2 SLP052 60005 T02170161 10217 20189 50003


Station Type Date Time Source
KPHL Decoded METAR 2019/04/20 17:54 UTC NOAA

PHILADELPHIA INTERNATIONAL AIRPT, PA, United States (KPHL) 39-52N 075-14W 18M
Apr 20, 2019 - 01:54 PM EDT / 2019.04.20 1754 UTC
Wind: from the S (190 degrees) at 14 MPH (12 KT) gusting to 22 MPH (19 KT):0
Visibility: 10 mile(s):0
Sky conditions: mostly cloudy
Temperature: 71.1 F (21.7 C)
Dew Point: 61.0 F (16.1 C)
Relative Humidity: 70%
Pressure (altimeter): 29.69 in. Hg (1005 hPa)
Pressure tendency: 0.01 inches (0.3 hPa) higher than three hours ago
ob: KPHL 201754Z 19012G19KT 10SM FEW014 SCT020 BKN250 22/16 A2969 RMK AO2 SLP052 60005 T02170161 10217 20189 50003
cycle: 18

Station Type Date Time Source
KPHL TAF 2019/04/20 18:27 UTC NOAA

TAF KPHL 201721Z 2018/2124 18014G23KT P6SM BKN015
FM201900 18015G25KT P6SM BKN070
FM202300 18012G19KT P6SM SCT250
FM210300 20006KT P6SM BKN060
FM211000 20005KT P6SM SCT060
TEMPO 2110/2112 5SM BR
FM211400 23006KT P6SM SCT060
FM212100 20005KT P6SM BKN060

Example: see airport list